Time;durP1;ratioP1;P1;durP2;ratioP2;P2;SDS_P1;SDS_P2;PMS_P1;PMS_P2;Temp;Humidity;BMP_temperature;BMP_pressure;BME280_temperature;BME280_humidity;BME280_pressure;Samples;Min_cycle;Max_cycle;Signal;HPM_P1;HPM_P2
2023/07/15 00:01:49;;;;;;;7.90;6.50;;;;;;;17.34;71.54;98733.50;225853;1278;22563;-73
2023/07/15 00:07:05;;;;;;;6.80;6.00;;;;;;;17.24;71.52;98733.48;225892;1280;25252;-74
2023/07/15 00:12:10;;;;;;;8.20;6.30;;;;;;;17.15;71.76;98738.62;225929;1277;25195;-74
2023/07/15 00:17:15;;;;;;;7.90;7.10;;;;;;;17.07;72.22;98738.95;225824;1281;22570;-75
2023/07/15 00:22:25;;;;;;;7.80;6.90;;;;;;;16.98;72.39;98732.94;225814;1281;22548;-75
2023/07/15 00:27:27;;;;;;;8.40;6.70;;;;;;;16.91;72.79;98735.17;225837;1280;22633;-74
2023/07/15 00:32:29;;;;;;;11.30;7.00;;;;;;;16.85;72.74;98731.01;225957;1279;22695;-73
2023/07/15 00:37:36;;;;;;;8.60;7.10;;;;;;;16.77;73.14;98725.59;225802;1279;22543;-74
2023/07/15 00:42:51;;;;;;;7.40;6.70;;;;;;;16.70;73.22;98722.46;225798;1280;22547;-75
2023/07/15 00:48:37;;;;;;;9.00;7.00;;;;;;;16.62;73.48;98722.93;225844;1281;22547;-73
2023/07/15 00:53:43;;;;;;;9.10;7.50;;;;;;;16.56;73.73;98718.79;225807;1279;25510;-74
2023/07/15 00:59:12;;;;;;;8.60;7.40;;;;;;;16.52;73.90;98715.73;225850;1280;22570;-73
2023/07/15 01:04:17;;;;;;;9.10;7.30;;;;;;;16.45;74.08;98710.70;225728;1277;22563;-73
2023/07/15 01:09:25;;;;;;;10.60;8.00;;;;;;;16.39;74.33;98713.27;225871;1281;22537;-73
2023/07/15 01:14:44;;;;;;;8.90;7.70;;;;;;;16.34;74.66;98713.98;225881;1257;24487;-74
2023/07/15 01:19:47;;;;;;;8.90;8.00;;;;;;;16.25;74.80;98711.35;225859;1273;22547;-74
2023/07/15 01:24:53;;;;;;;10.30;8.20;;;;;;;16.17;75.07;98715.84;225818;1257;22568;-74
2023/07/15 01:30:00;;;;;;;8.90;7.90;;;;;;;16.11;75.60;98712.27;225599;1280;22619;-74
2023/07/15 01:35:04;;;;;;;10.80;8.60;;;;;;;16.05;75.43;98716.72;225817;1280;23477;-74
2023/07/15 01:40:10;;;;;;;11.80;8.50;;;;;;;16.01;75.99;98719.95;225622;1279;23658;-74
2023/07/15 01:45:13;;;;;;;10.60;8.40;;;;;;;15.97;76.25;98718.25;225882;1277;22550;-74
2023/07/15 01:50:36;;;;;;;;;;;;;;;;;;;;;
2023/07/15 01:55:38;;;;;;;11.10;8.80;;;;;;;15.91;76.51;98716.70;225867;1280;22557;-74
2023/07/15 02:00:41;;;;;;;11.40;8.90;;;;;;;15.88;76.70;98712.61;225861;1276;22549;-74
2023/07/15 02:05:43;;;;;;;9.60;8.20;;;;;;;15.83;76.94;98716.39;225841;1280;25390;-74
2023/07/15 02:10:48;;;;;;;9.80;8.80;;;;;;;15.80;77.31;98717.04;225856;1278;22553;-74
2023/07/15 02:15:57;;;;;;;10.10;9.10;;;;;;;15.75;77.36;98716.36;225681;1277;22533;-74
2023/07/15 02:21:25;;;;;;;13.20;9.30;;;;;;;15.70;77.36;98718.81;225856;1267;22655;-74
2023/07/15 02:26:36;;;;;;;11.30;9.10;;;;;;;15.63;77.78;98723.46;225798;1280;22544;-74
2023/07/15 02:32:03;;;;;;;11.20;9.00;;;;;;;15.55;77.86;98726.02;225802;1280;22543;-74
2023/07/15 02:37:04;;;;;;;11.20;9.00;;;;;;;15.50;78.16;98735.20;225905;1273;22567;-75
2023/07/15 02:42:34;;;;;;;10.30;9.20;;;;;;;15.47;78.35;98732.12;225813;1280;22565;-74
2023/07/15 02:47:39;;;;;;;11.40;9.40;;;;;;;15.43;78.46;98734.83;225671;1279;22543;-73
2023/07/15 02:52:53;;;;;;;10.80;9.50;;;;;;;15.40;78.54;98729.62;225884;1277;22569;-74
2023/07/15 02:58:36;;;;;;;12.90;10.50;;;;;;;15.39;78.86;98731.73;225841;1280;22628;-74
2023/07/15 03:04:12;;;;;;;13.40;10.60;;;;;;;15.40;79.03;98740.44;225802;1280;22663;-74
2023/07/15 03:09:32;;;;;;;11.90;10.00;;;;;;;15.42;78.98;98743.31;225779;1280;22531;-75
2023/07/15 03:14:54;;;;;;;15.10;10.30;;;;;;;15.46;79.22;98734.63;225664;1280;22544;-74
2023/07/15 03:20:30;;;;;;;;;;;;;;;;;;;;;
2023/07/15 03:26:17;;;;;;;11.60;10.20;;;;;;;15.56;79.43;98738.01;225861;1280;23318;-74
2023/07/15 03:31:28;;;;;;;11.70;9.60;;;;;;;15.84;79.16;98734.25;225820;1276;22640;-74
2023/07/15 03:36:32;;;;;;;11.30;9.70;;;;;;;16.30;78.90;98732.69;225930;1280;22551;-74
2023/07/15 03:41:35;;;;;;;13.20;9.60;;;;;;;16.78;78.49;98732.05;225841;1278;24260;-74
2023/07/15 03:46:37;;;;;;;13.90;9.20;;;;;;;17.29;78.29;98726.86;225835;1278;24257;-75
2023/07/15 03:51:40;;;;;;;9.90;8.90;;;;;;;17.78;77.24;98732.67;225796;1278;22540;-74
2023/07/15 03:56:42;;;;;;;9.70;8.20;;;;;;;18.22;76.72;98730.84;225741;1275;22554;-74
2023/07/15 04:01:44;;;;;;;9.40;8.40;;;;;;;18.58;76.24;98729.52;225739;1280;22706;-75
2023/07/15 04:06:47;;;;;;;9.00;8.10;;;;;;;18.87;75.83;98731.17;225812;1278;22576;-75
2023/07/15 04:11:50;;;;;;;10.80;8.50;;;;;;;18.99;75.22;98727.13;225753;1278;22717;-74
2023/07/15 04:16:53;;;;;;;10.10;8.30;;;;;;;19.02;74.78;98728.36;225788;1262;22540;-74
2023/07/15 04:21:55;;;;;;;9.60;8.20;;;;;;;19.00;74.56;98730.75;225824;1273;23421;-73
2023/07/15 04:26:57;;;;;;;10.90;8.30;;;;;;;19.02;74.49;98733.02;226035;1276;25478;-75
2023/07/15 04:31:59;;;;;;;9.70;7.50;;;;;;;19.00;74.60;98737.02;225862;1277;22536;-75
2023/07/15 04:37:01;;;;;;;10.10;7.80;;;;;;;19.01;74.81;98736.05;225838;1278;22549;-74
2023/07/15 04:42:04;;;;;;;8.90;7.40;;;;;;;19.07;75.06;98732.36;225878;1276;25294;-74
2023/07/15 04:47:06;;;;;;;9.40;7.40;;;;;;;19.17;75.24;98738.55;225827;1280;22544;-74
2023/07/15 04:52:09;;;;;;;9.40;7.40;;;;;;;19.25;75.25;98734.56;225837;1275;25284;-74
2023/07/15 04:57:12;;;;;;;8.00;7.20;;;;;;;19.34;75.33;98730.84;225803;1278;22547;-74
2023/07/15 05:02:14;;;;;;;10.20;7.10;;;;;;;19.48;75.47;98735.08;225814;1278;22520;-74
2023/07/15 05:07:16;;;;;;;7.90;6.50;;;;;;;19.66;75.44;98735.02;225692;1280;22588;-75
2023/07/15 05:12:19;;;;;;;9.70;5.30;;;;;;;19.87;74.76;98733.25;225862;1277;22559;-76
2023/07/15 05:17:21;;;;;;;9.30;5.30;;;;;;;20.11;74.12;98739.98;225859;1278;24239;-75
2023/07/15 05:22:26;;;;;;;10.10;5.20;;;;;;;20.37;73.42;98741.86;225850;1278;22547;-74
2023/07/15 05:27:31;;;;;;;8.40;5.10;;;;;;;20.61;72.82;98741.36;225691;1280;22983;-74
2023/07/15 05:32:34;;;;;;;8.20;5.00;;;;;;;20.83;72.35;98741.40;225965;1280;22551;-74
2023/07/15 05:37:36;;;;;;;8.30;4.60;;;;;;;21.04;71.89;98742.33;225908;1276;24249;-75
2023/07/15 05:42:43;;;;;;;8.60;5.10;;;;;;;21.29;71.37;98738.30;225928;1272;22544;-76
2023/07/15 05:47:45;;;;;;;8.40;4.30;;;;;;;21.53;70.49;98738.03;225827;1276;22536;-75
2023/07/15 05:52:48;;;;;;;7.50;4.80;;;;;;;21.72;69.96;98730.77;225788;1280;22675;-75
2023/07/15 05:57:50;;;;;;;6.10;4.70;;;;;;;21.90;69.57;98738.98;225839;1278;22571;-75
2023/07/15 06:02:52;;;;;;;6.00;4.20;;;;;;;22.07;69.24;98740.58;225615;1280;22528;-74
2023/07/15 06:07:54;;;;;;;5.80;4.20;;;;;;;22.25;68.94;98737.73;225760;1278;22563;-75
2023/07/15 06:12:57;;;;;;;7.20;4.40;;;;;;;22.41;68.63;98741.60;225765;1275;22559;-75
2023/07/15 06:17:59;;;;;;;6.10;4.70;;;;;;;22.58;68.30;98738.46;225828;1276;22576;-75
2023/07/15 06:23:02;;;;;;;8.10;5.10;;;;;;;22.79;68.14;98746.33;225665;1278;213116;-75
2023/07/15 06:28:05;;;;;;;5.00;4.40;;;;;;;22.99;67.84;98739.94;225789;1278;22613;-75
2023/07/15 06:33:21;;;;;;;5.90;5.30;;;;;;;23.15;67.33;98743.16;225815;1280;22575;-74
2023/07/15 06:38:23;;;;;;;5.70;5.10;;;;;;;23.33;67.09;98740.94;225846;1273;22630;-75
2023/07/15 06:43:25;;;;;;;7.30;5.00;;;;;;;23.50;66.72;98736.50;225861;1278;22624;-74
2023/07/15 06:48:28;;;;;;;5.60;4.90;;;;;;;23.69;66.36;98737.06;225868;1277;22549;-74
2023/07/15 06:53:40;;;;;;;5.40;4.90;;;;;;;23.86;66.14;98735.11;225571;1269;22506;-75
2023/07/15 06:58:46;;;;;;;5.70;5.20;;;;;;;24.05;65.64;98738.29;225528;1280;22551;-74
2023/07/15 07:03:48;;;;;;;7.20;5.50;;;;;;;24.22;65.43;98743.02;225379;1257;25930;-74
2023/07/15 07:08:54;;;;;;;5.40;4.90;;;;;;;24.38;65.26;98737.72;225679;1276;22552;-73
2023/07/15 07:13:59;;;;;;;;;;;;;;;24.53;64.67;98737.58;225637;1275;25261;-73
2023/07/15 07:19:01;;;;;;;4.50;4.20;;;;;;;24.67;64.20;98734.25;225644;1275;22576;-74
2023/07/15 07:24:04;;;;;;;5.00;4.10;;;;;;;24.87;63.68;98737.45;225665;1272;22546;-74
2023/07/15 07:29:07;;;;;;;5.00;4.30;;;;;;;25.10;63.30;98734.75;225631;1256;25328;-73
2023/07/15 07:34:09;;;;;;;4.40;4.00;;;;;;;25.28;62.49;98734.20;225694;1272;22519;-73
2023/07/15 07:39:12;;;;;;;5.20;4.40;;;;;;;25.49;62.29;98737.36;225518;1279;22895;-73
2023/07/15 07:44:17;;;;;;;5.20;4.30;;;;;;;25.73;62.02;98733.67;225509;1276;22542;-74
2023/07/15 07:49:22;;;;;;;7.40;4.60;;;;;;;25.95;61.47;98726.92;225550;1276;22524;-74
2023/07/15 07:54:24;;;;;;;4.80;3.80;;;;;;;26.14;61.04;98724.57;225676;1278;22923;-74
2023/07/15 07:59:27;;;;;;;5.50;3.60;;;;;;;26.31;60.55;98720.23;225706;1277;22535;-74
2023/07/15 08:04:29;;;;;;;4.20;3.80;;;;;;;26.52;60.05;98719.03;225695;1276;22524;-74
2023/07/15 08:09:34;;;;;;;4.30;3.40;;;;;;;26.67;59.38;98717.29;225877;1272;22583;-73
2023/07/15 08:14:37;;;;;;;3.80;3.50;;;;;;;26.78;58.35;98714.14;225681;1274;23031;-73
2023/07/15 08:19:39;;;;;;;4.10;3.80;;;;;;;26.88;57.44;98711.24;225480;1280;22555;-73
2023/07/15 08:24:41;;;;;;;5.00;3.40;;;;;;;26.97;57.70;98709.35;225664;1276;22536;-74
2023/07/15 08:29:43;;;;;;;4.10;3.80;;;;;;;27.14;57.79;98711.45;225654;1275;22554;-74
2023/07/15 08:35:00;;;;;;;3.90;3.60;;;;;;;27.36;57.53;98712.30;225524;1278;22552;-74
2023/07/15 08:40:03;;;;;;;4.90;3.60;;;;;;;27.59;56.92;98711.45;225577;1275;22576;-75
2023/07/15 08:45:06;;;;;;;3.80;3.50;;;;;;;27.77;56.65;98710.70;225592;1275;22531;-73
2023/07/15 08:50:15;;;;;;;4.00;3.70;;;;;;;27.93;56.22;98712.53;225574;1273;23285;-74
2023/07/15 08:55:19;;;;;;;4.20;3.80;;;;;;;28.10;56.25;98707.89;225577;1269;22648;-74
2023/07/15 09:00:22;;;;;;;3.50;3.20;;;;;;;28.25;55.57;98706.02;225641;1275;24239;-76
2023/07/15 09:05:24;;;;;;;6.30;5.80;;;;;;;28.32;54.28;98706.19;225380;1278;22544;-79
2023/07/15 09:10:31;;;;;;;5.00;3.70;;;;;;;28.32;53.50;98706.73;225491;1265;22640;-75
2023/07/15 09:15:35;;;;;;;6.70;4.00;;;;;;;28.34;53.44;98707.13;225577;1280;22545;-74
2023/07/15 09:20:37;;;;;;;4.70;4.20;;;;;;;28.32;53.13;98699.79;225400;1280;25275;-74
2023/07/15 09:25:50;;;;;;;4.30;4.00;;;;;;;28.31;52.92;98698.27;225507;1270;22585;-78
2023/07/15 09:30:52;;;;;;;5.10;4.30;;;;;;;28.47;53.80;98695.56;225650;1277;22542;-75
2023/07/15 09:35:55;;;;;;;6.10;4.30;;;;;;;28.69;53.68;98687.64;225558;1259;24699;-74
2023/07/15 09:40:58;;;;;;;4.30;3.70;;;;;;;28.88;53.36;98687.00;225770;1275;22671;-74
2023/07/15 09:46:01;;;;;;;4.60;4.20;;;;;;;29.01;52.31;98684.88;225607;1275;22925;-74
2023/07/15 09:51:03;;;;;;;5.70;4.10;;;;;;;29.03;51.87;98683.46;225674;1274;23830;-75
2023/07/15 09:56:07;;;;;;;4.40;4.00;;;;;;;29.15;51.79;98683.20;225674;1279;22550;-74
2023/07/15 10:01:20;;;;;;;4.70;4.30;;;;;;;29.31;51.34;98682.36;225570;1275;22553;-74
2023/07/15 10:06:22;;;;;;;6.30;4.50;;;;;;;29.44;51.10;98678.48;225708;1278;25466;-75
2023/07/15 10:11:25;;;;;;;5.00;4.10;;;;;;;29.58;51.11;98682.38;225600;1273;22534;-76
2023/07/15 10:16:27;;;;;;;4.50;4.00;;;;;;;29.82;50.98;98677.86;225621;1259;23098;-76
2023/07/15 10:21:30;;;;;;;4.40;4.00;;;;;;;29.95;49.77;98682.17;225669;1278;22574;-76
2023/07/15 10:26:32;;;;;;;4.70;4.20;;;;;;;29.96;49.22;98681.04;225690;1265;22539;-78
2023/07/15 10:31:35;;;;;;;4.90;3.90;;;;;;;30.02;50.08;98676.05;225661;1275;25366;-76
2023/07/15 10:36:44;;;;;;;4.70;3.20;;;;;;;30.24;50.03;98670.84;225629;1280;23043;-77
2023/07/15 10:41:49;;;;;;;3.70;3.40;;;;;;;30.48;48.70;98667.93;225714;1280;22563;-75
2023/07/15 10:47:04;;;;;;;3.90;3.50;;;;;;;30.64;48.70;98665.71;225692;1277;22690;-75
2023/07/15 10:52:07;;;;;;;4.00;3.60;;;;;;;30.73;47.94;98662.07;225535;1280;22556;-75
2023/07/15 10:57:15;;;;;;;3.70;3.40;;;;;;;30.72;47.73;98659.63;225509;1269;22557;-75
2023/07/15 11:02:18;;;;;;;4.00;3.70;;;;;;;30.80;47.69;98657.63;225385;1273;22540;-76
2023/07/15 11:07:20;;;;;;;4.40;4.00;;;;;;;30.84;47.37;98658.76;225275;1262;22550;-77
2023/07/15 11:12:22;;;;;;;5.60;3.60;;;;;;;30.94;47.52;98649.70;225664;1260;22551;-76
2023/07/15 11:17:24;;;;;;;3.70;3.40;;;;;;;31.17;47.89;98644.17;225576;1280;22527;-77
2023/07/15 11:22:27;;;;;;;4.30;3.80;;;;;;;31.40;47.45;98634.90;225827;1278;22543;-77
2023/07/15 11:27:29;;;;;;;4.00;3.60;;;;;;;31.53;47.54;98635.38;225637;1280;22550;-77
2023/07/15 11:32:31;;;;;;;4.20;3.80;;;;;;;31.64;47.28;98631.17;225677;1280;22539;-77
2023/07/15 11:37:33;;;;;;;4.60;3.40;;;;;;;31.63;46.51;98623.65;225838;1278;24288;-78
2023/07/15 11:42:36;;;;;;;2.70;2.50;;;;;;;31.57;44.85;98618.69;225909;1280;22526;-77
2023/07/15 11:47:40;;;;;;;4.30;2.70;;;;;;;31.61;44.43;98614.90;225804;1278;22539;-77
2023/07/15 11:52:43;;;;;;;2.70;2.50;;;;;;;31.75;44.22;98615.48;225793;1275;22552;-76
2023/07/15 11:57:48;;;;;;;3.20;3.00;;;;;;;31.81;43.72;98610.81;225794;1278;22520;-78
2023/07/15 12:02:50;;;;;;;3.10;2.80;;;;;;;31.92;43.75;98610.67;225907;1275;22550;-76
2023/07/15 12:07:53;;;;;;;2.70;2.50;;;;;;;31.98;43.11;98601.46;225723;1280;22564;-76
2023/07/15 12:12:55;;;;;;;2.60;2.40;;;;;;;32.10;42.76;98599.83;225790;1280;22592;-77
2023/07/15 12:17:58;;;;;;;3.50;2.70;;;;;;;32.13;42.30;98595.69;225875;1278;22558;-77
2023/07/15 12:23:00;;;;;;;5.80;5.30;;;;;;;32.24;42.92;98593.55;225867;1278;22536;-76
2023/07/15 12:28:03;;;;;;;2.80;2.60;;;;;;;32.32;41.69;98588.29;225850;1278;25336;-77
2023/07/15 12:33:05;;;;;;;3.30;2.70;;;;;;;32.24;41.10;98586.67;225844;1278;23108;-76
2023/07/15 12:38:07;;;;;;;2.60;2.40;;;;;;;32.21;41.43;98582.84;225959;1278;22609;-76
2023/07/15 12:43:09;;;;;;;3.90;2.90;;;;;;;32.32;42.11;98574.64;225792;1259;25321;-76
2023/07/15 12:48:11;;;;;;;3.30;3.00;;;;;;;32.49;42.11;98569.84;225812;1278;22965;-77
2023/07/15 12:53:17;;;;;;;2.60;2.40;;;;;;;32.46;40.79;98566.55;225798;1278;22637;-77
2023/07/15 12:58:19;;;;;;;2.80;2.60;;;;;;;32.49;41.31;98567.03;225874;1278;22547;-77
2023/07/15 13:03:21;;;;;;;3.00;2.50;;;;;;;32.52;40.98;98563.04;225843;1278;22595;-77
2023/07/15 13:08:23;;;;;;;2.80;2.60;;;;;;;32.56;41.34;98558.35;225789;1280;22547;-77
2023/07/15 13:13:26;;;;;;;2.90;2.50;;;;;;;32.72;41.03;98552.27;225768;1280;22536;-77
2023/07/15 13:18:28;;;;;;;3.00;2.80;;;;;;;32.82;41.03;98547.38;225692;1278;22550;-77
2023/07/15 13:23:30;;;;;;;2.80;2.60;;;;;;;32.80;40.82;98547.54;225929;1277;22551;-76
2023/07/15 13:28:32;;;;;;;3.20;2.70;;;;;;;32.70;40.65;98553.54;225856;1278;22527;-76
2023/07/15 13:33:35;;;;;;;3.30;2.60;;;;;;;32.64;41.37;98550.12;225744;1280;22550;-77
2023/07/15 13:38:42;;;;;;;3.10;2.90;;;;;;;32.78;41.98;98546.23;225893;1278;22901;-77
2023/07/15 13:43:47;;;;;;;3.00;2.80;;;;;;;32.85;41.59;98540.77;225884;1280;24324;-77
2023/07/15 13:48:50;;;;;;;3.00;2.80;;;;;;;32.95;41.86;98538.89;225738;1278;22738;-77
2023/07/15 13:53:52;;;;;;;3.00;2.80;;;;;;;33.10;41.76;98537.67;225789;1279;22563;-77
2023/07/15 13:58:54;;;;;;;2.90;2.70;;;;;;;33.19;40.89;98541.96;225836;1271;22530;-77
2023/07/15 14:03:56;;;;;;;3.00;2.80;;;;;;;33.20;41.37;98534.34;225841;1275;23330;-76
2023/07/15 14:08:59;;;;;;;2.60;2.50;;;;;;;33.29;41.44;98529.22;225838;1278;22580;-76
2023/07/15 14:14:02;;;;;;;3.40;3.10;;;;;;;33.40;41.31;98525.42;225803;1275;22543;-78
2023/07/15 14:19:04;;;;;;;3.10;2.80;;;;;;;33.50;41.32;98522.60;225828;1278;22555;-77
2023/07/15 14:24:06;;;;;;;3.70;3.20;;;;;;;33.45;40.98;98511.16;225819;1278;22548;-77
2023/07/15 14:29:08;;;;;;;3.10;2.80;;;;;;;33.41;40.52;98514.86;225836;1278;22558;-76
2023/07/15 14:34:10;;;;;;;3.30;3.00;;;;;;;33.44;40.94;98512.71;225981;1278;22540;-77
2023/07/15 14:39:12;;;;;;;2.70;2.50;;;;;;;33.51;40.86;98499.21;225948;1278;25370;-76
2023/07/15 14:44:14;;;;;;;3.30;3.00;;;;;;;33.59;40.50;98505.23;225908;1278;22598;-76
2023/07/15 14:49:22;;;;;;;3.40;3.00;;;;;;;33.53;40.29;98497.58;225840;1278;22539;-77
2023/07/15 14:54:27;;;;;;;3.10;2.90;;;;;;;33.52;40.31;98493.63;225821;1279;22546;-77
2023/07/15 14:59:29;;;;;;;3.30;3.00;;;;;;;33.53;39.90;98493.97;225829;1278;24224;-77
2023/07/15 15:04:31;;;;;;;3.40;3.10;;;;;;;33.56;40.13;98489.57;225823;1278;22555;-77
2023/07/15 15:09:34;;;;;;;3.00;2.80;;;;;;;33.63;40.00;98488.61;225944;1278;25529;-77
2023/07/15 15:14:36;;;;;;;3.10;2.80;;;;;;;33.60;39.55;98490.33;225837;1278;22539;-76
2023/07/15 15:19:38;;;;;;;3.40;3.20;;;;;;;33.51;39.61;98480.99;225947;1278;23065;-77
2023/07/15 15:24:40;;;;;;;3.50;3.00;;;;;;;33.49;39.50;98478.35;225811;1278;22551;-76
2023/07/15 15:29:42;;;;;;;3.30;3.00;;;;;;;33.49;39.10;98475.05;225840;1278;22562;-77
2023/07/15 15:34:44;;;;;;;3.20;2.80;;;;;;;33.52;39.38;98478.21;225855;1280;22554;-76
2023/07/15 15:39:46;;;;;;;2.90;2.70;;;;;;;33.60;39.42;98474.60;225904;1280;22561;-77
2023/07/15 15:44:49;;;;;;;3.40;3.10;;;;;;;33.58;39.35;98474.45;225911;1280;22668;-77
2023/07/15 15:49:51;;;;;;;3.70;3.40;;;;;;;33.46;39.25;98475.27;225777;1266;23018;-77
2023/07/15 15:54:55;;;;;;;3.50;3.20;;;;;;;33.35;39.65;98471.73;225829;1278;22544;-76
2023/07/15 15:59:57;;;;;;;3.50;3.20;;;;;;;33.26;39.85;98464.02;225900;1278;22539;-76
2023/07/15 16:04:59;;;;;;;3.30;3.10;;;;;;;33.23;39.91;98463.36;225802;1278;22536;-77
2023/07/15 16:10:05;;;;;;;3.40;3.10;;;;;;;33.22;39.60;98463.24;225835;1278;22905;-76
2023/07/15 16:15:09;;;;;;;2.80;2.60;;;;;;;33.20;39.91;98456.86;225778;1278;22533;-75
2023/07/15 16:20:12;;;;;;;3.80;2.80;;;;;;;33.16;39.61;98455.40;225863;1278;22695;-77
2023/07/15 16:25:14;;;;;;;3.00;2.80;;;;;;;33.05;39.62;98450.44;225664;1280;24255;-75
2023/07/15 16:30:16;;;;;;;2.80;2.50;;;;;;;32.98;39.96;98453.72;225934;1278;22540;-75
2023/07/15 16:35:21;;;;;;;3.20;2.90;;;;;;;32.94;40.07;98456.83;225969;1277;22547;-75
2023/07/15 16:40:24;;;;;;;2.90;2.70;;;;;;;32.87;39.91;98452.94;225839;1278;22650;-75
2023/07/15 16:45:26;;;;;;;3.90;2.90;;;;;;;32.77;39.42;98452.76;225678;1281;22563;-76
2023/07/15 16:50:29;;;;;;;3.30;3.00;;;;;;;32.69;39.62;98454.49;225671;1280;22717;-76
2023/07/15 16:55:31;;;;;;;3.60;2.90;;;;;;;32.62;40.05;98455.40;225907;1278;22569;-76
2023/07/15 17:00:38;;;;;;;3.50;3.20;;;;;;;32.53;39.84;98455.70;225924;1278;22545;-76
2023/07/15 17:05:40;;;;;;;4.40;3.60;;;;;;;32.39;40.17;98455.38;225723;1280;22547;-75
2023/07/15 17:10:43;;;;;;;3.80;3.20;;;;;;;32.27;40.57;98455.66;225758;1278;22558;-75
2023/07/15 17:15:45;;;;;;;3.20;2.90;;;;;;;32.17;40.99;98453.61;225829;1278;22525;-75
2023/07/15 17:20:48;;;;;;;6.60;6.00;;;;;;;32.20;41.52;98451.83;225887;1279;22738;-75
2023/07/15 17:25:50;;;;;;;3.30;3.10;;;;;;;33.18;41.57;98448.48;225864;1278;22610;-76
2023/07/15 17:30:52;;;;;;;4.90;4.50;;;;;;;34.59;41.16;98449.15;225917;1279;22540;-75
2023/07/15 17:35:54;;;;;;;5.90;5.30;;;;;;;36.03;40.60;98449.25;225820;1278;22561;-76
2023/07/15 17:40:56;;;;;;;3.70;3.40;;;;;;;37.21;39.58;98448.45;225932;1280;22578;-76
2023/07/15 17:45:58;;;;;;;3.70;3.30;;;;;;;37.96;38.11;98435.79;225786;1280;25884;-76
2023/07/15 17:51:00;;;;;;;3.70;3.40;;;;;;;37.32;37.36;98441.41;225829;1279;25353;-76
2023/07/15 17:56:03;;;;;;;5.50;3.50;;;;;;;36.16;37.88;98444.48;225863;1280;22541;-76
2023/07/15 18:01:05;;;;;;;4.20;3.80;;;;;;;35.16;39.04;98444.66;225650;1280;22579;-76
2023/07/15 18:06:08;;;;;;;4.90;4.40;;;;;;;34.30;39.76;98445.05;225807;1278;25932;-77
2023/07/15 18:11:10;;;;;;;4.70;4.20;;;;;;;33.52;40.71;98444.84;225873;1272;22578;-76
2023/07/15 18:16:12;;;;;;;5.20;4.50;;;;;;;32.81;41.67;98437.67;225864;1278;22543;-76
2023/07/15 18:21:15;;;;;;;5.10;4.60;;;;;;;32.17;42.25;98439.93;225682;1279;173644;-75
2023/07/15 18:26:21;;;;;;;6.00;4.50;;;;;;;31.60;43.00;98442.77;225911;1278;22541;-76
2023/07/15 18:31:24;;;;;;;5.50;5.00;;;;;;;31.09;43.69;98448.60;225830;1281;22540;-76
2023/07/15 18:36:26;;;;;;;6.10;5.50;;;;;;;30.63;44.31;98453.45;225827;1278;22542;-76
2023/07/15 18:41:31;;;;;;;5.40;4.50;;;;;;;30.18;44.92;98447.84;225815;1280;25173;-75
2023/07/15 18:46:36;;;;;;;5.20;4.70;;;;;;;29.78;45.23;98452.41;225831;1277;22543;-76
2023/07/15 18:51:38;;;;;;;5.70;5.10;;;;;;;29.40;46.02;98452.73;225853;1281;22539;-76
2023/07/15 18:56:40;;;;;;;5.30;4.90;;;;;;;29.03;46.44;98454.24;225933;1278;22537;-76
2023/07/15 19:01:43;;;;;;;6.60;6.00;;;;;;;28.70;46.87;98459.25;225602;1280;22541;-75
2023/07/15 19:06:45;;;;;;;13.90;12.60;;;;;;;28.42;47.56;98465.61;225755;1279;22530;-74
2023/07/15 19:11:55;;;;;;;7.10;6.40;;;;;;;28.14;48.10;98468.13;225838;1279;22637;-75
2023/07/15 19:16:57;;;;;;;6.10;5.50;;;;;;;27.84;48.79;98470.47;225771;1281;24219;-75
2023/07/15 19:22:05;;;;;;;6.80;6.20;;;;;;;27.57;49.44;98479.77;225810;1280;25324;-76
2023/07/15 19:27:08;;;;;;;6.80;6.10;;;;;;;27.34;50.02;98487.98;225812;1280;22549;-74
2023/07/15 19:32:10;;;;;;;6.10;5.50;;;;;;;27.14;50.70;98497.30;225872;1281;22552;-76
2023/07/15 19:37:13;;;;;;;7.20;6.60;;;;;;;26.94;51.21;98493.79;225660;1281;22587;-75
2023/07/15 19:42:23;;;;;;;7.40;6.70;;;;;;;26.75;51.82;98492.80;225763;1281;22539;-75
2023/07/15 19:47:25;;;;;;;6.40;5.80;;;;;;;26.56;52.42;98496.73;225748;1279;22545;-75
2023/07/15 19:52:27;;;;;;;6.00;5.50;;;;;;;26.37;53.02;98491.05;225819;1281;24243;-76
2023/07/15 19:57:35;;;;;;;6.60;5.90;;;;;;;26.17;53.37;98493.21;225841;1277;23191;-76
2023/07/15 20:02:37;;;;;;;6.90;6.20;;;;;;;26.01;53.92;98496.56;225839;1275;22561;-75
2023/07/15 20:07:51;;;;;;;6.50;5.80;;;;;;;25.85;54.54;98492.70;225821;1280;22579;-75
2023/07/15 20:13:05;;;;;;;6.90;6.20;;;;;;;25.70;55.05;98489.04;225843;1280;22646;-75
2023/07/15 20:18:13;;;;;;;7.40;6.60;;;;;;;25.53;55.60;98488.33;225893;1277;22544;-75
2023/07/15 20:23:16;;;;;;;7.20;6.50;;;;;;;25.38;55.98;98490.38;225902;1276;22639;-76
2023/07/15 20:28:32;;;;;;;6.90;6.20;;;;;;;25.23;56.28;98488.41;225820;1280;24351;-75
2023/07/15 20:33:34;;;;;;;7.00;6.30;;;;;;;25.10;56.57;98491.60;225776;1280;22546;-74
2023/07/15 20:38:39;;;;;;;6.80;6.20;;;;;;;24.98;57.11;98486.99;225782;1280;22540;-76
2023/07/15 20:49:16;;;;;;;6.90;6.20;;;;;;;24.74;57.77;98487.14;225810;1278;22549;-74
2023/07/15 20:54:18;;;;;;;7.20;5.50;;;;;;;24.62;58.01;98484.78;225816;1280;22526;-75
2023/07/15 20:59:29;;;;;;;6.60;5.90;;;;;;;24.51;58.39;98484.30;225828;1280;22575;-75
2023/07/15 21:04:32;;;;;;;6.60;5.90;;;;;;;24.40;58.57;98486.79;225845;1280;22540;-75
2023/07/15 21:09:34;;;;;;;6.80;6.10;;;;;;;24.30;58.85;98492.52;225710;1280;22603;-75
2023/07/15 21:14:48;;;;;;;8.40;6.90;;;;;;;24.20;59.21;98486.67;225857;1280;22567;-75
2023/07/15 21:19:52;;;;;;;8.00;7.10;;;;;;;24.10;59.53;98488.86;225814;1280;22674;-75
2023/07/15 21:24:55;;;;;;;6.50;6.00;;;;;;;23.99;59.84;98491.17;225797;1278;22608;-75
2023/07/15 21:29:57;;;;;;;6.20;5.60;;;;;;;23.88;60.17;98490.45;225840;1274;22541;-76
2023/07/15 21:35:20;;;;;;;6.40;5.80;;;;;;;23.78;60.52;98498.39;225673;1280;22595;-75
2023/07/15 21:40:46;;;;;;;6.50;5.90;;;;;;;23.69;60.78;98499.55;225676;1280;22635;-74
2023/07/15 21:45:48;;;;;;;8.30;5.60;;;;;;;23.62;61.06;98500.92;225722;1279;24811;-76
2023/07/15 21:50:51;;;;;;;6.10;5.50;;;;;;;23.55;61.24;98505.41;225869;1279;22546;-75
2023/07/15 21:55:58;;;;;;;6.00;5.50;;;;;;;23.50;61.59;98512.91;225831;1276;22655;-77
2023/07/15 22:01:00;;;;;;;6.70;5.40;;;;;;;23.46;61.87;98512.96;225699;1277;22566;-75
2023/07/15 22:06:02;;;;;;;5.90;5.40;;;;;;;23.41;62.15;98514.24;225801;1279;22591;-75
2023/07/15 22:11:05;;;;;;;5.70;5.20;;;;;;;23.37;62.38;98516.41;225775;1278;22605;-76
2023/07/15 22:16:07;;;;;;;5.60;5.10;;;;;;;23.33;62.45;98512.34;225813;1276;23619;-76
2023/07/15 22:21:13;;;;;;;5.70;5.10;;;;;;;23.30;62.77;98515.16;225661;1280;22682;-76
2023/07/15 22:26:15;;;;;;;5.80;5.30;;;;;;;23.26;62.94;98511.19;225758;1279;23651;-75
2023/07/15 22:31:18;;;;;;;5.50;5.00;;;;;;;23.23;63.07;98509.15;225807;1277;22551;-74
2023/07/15 22:36:35;;;;;;;5.80;5.20;;;;;;;23.19;63.32;98500.86;225850;1275;22576;-75
2023/07/15 22:41:41;;;;;;;5.70;5.20;;;;;;;23.14;63.45;98499.43;225828;1278;23019;-74
2023/07/15 22:46:58;;;;;;;5.40;5.00;;;;;;;23.08;63.59;98495.84;225882;1277;22530;-74
2023/07/15 22:52:10;;;;;;;5.00;4.50;;;;;;;23.02;63.86;98494.77;225820;1274;22540;-75
2023/07/15 22:57:15;;;;;;;5.60;4.70;;;;;;;22.97;63.93;98495.20;225850;1277;22607;-76
2023/07/15 23:02:22;;;;;;;5.50;5.10;;;;;;;22.94;64.16;98494.55;225587;1280;22652;-75
2023/07/15 23:07:25;;;;;;;5.60;5.10;;;;;;;22.90;64.35;98491.48;225819;1273;22551;-75
2023/07/15 23:12:53;;;;;;;5.00;4.30;;;;;;;22.87;64.52;98494.56;225654;1278;22550;-75
2023/07/15 23:17:59;;;;;;;5.10;4.50;;;;;;;22.82;64.73;98496.11;225856;1280;22557;-75
2023/07/15 23:23:22;;;;;;;5.30;4.80;;;;;;;22.78;64.80;98488.46;225780;1278;22542;-76
2023/07/15 23:28:29;;;;;;;5.40;4.90;;;;;;;22.75;64.85;98484.72;225826;1278;22551;-75
2023/07/15 23:34:14;;;;;;;6.50;5.10;;;;;;;22.75;65.13;98475.83;225812;1280;22528;-76
2023/07/15 23:40:00;;;;;;;6.40;4.80;;;;;;;22.76;65.08;98468.41;225810;1280;22544;-75
2023/07/15 23:45:30;;;;;;;5.60;5.10;;;;;;;22.77;65.27;98466.54;225673;1279;22561;-75
2023/07/15 23:50:56;;;;;;;10.00;5.40;;;;;;;22.76;65.25;98468.25;225691;1280;22542;-75